sensor_id;sensor_type;location;lat;lon;timestamp;pressure;altitude;pressure_sealevel;temperature;humidity
65054;BME280;51639;47.828;35.038;2023-05-14T00:13:43;100743.06;;;16.32;54.34
65054;BME280;51639;47.828;35.038;2023-05-14T00:28:45;100738.97;;;16.02;56.29
65054;BME280;51639;47.828;35.038;2023-05-14T00:43:47;100734.03;;;15.84;57.16
65054;BME280;51639;47.828;35.038;2023-05-14T00:58:49;100734.03;;;15.84;57.83
65054;BME280;51639;47.828;35.038;2023-05-14T01:29:21;100741.09;;;15.44;64.82
65054;BME280;51639;47.828;35.038;2023-05-14T01:44:23;100729.25;;;15.21;66.66
65054;BME280;51639;47.828;35.038;2023-05-14T01:59:25;100747.56;;;14.95;73.69
65054;BME280;51639;47.828;35.038;2023-05-14T02:14:30;100749.41;;;14.86;78.07
65054;BME280;51639;47.828;35.038;2023-05-14T02:29:32;100742.94;;;14.92;80.09
65054;BME280;51639;47.828;35.038;2023-05-14T02:44:34;100756.97;;;14.94;86.56
65054;BME280;51639;47.828;35.038;2023-05-14T02:59:36;100743.25;;;15.11;88.75
65054;BME280;51639;47.828;35.038;2023-05-14T03:14:39;100753.91;;;15.47;90.56
65054;BME280;51639;47.828;35.038;2023-05-14T03:29:40;100766.25;;;15.80;95.58
65054;BME280;51639;47.828;35.038;2023-05-14T03:44:42;100773.56;;;16.21;92.14
65054;BME280;51639;47.828;35.038;2023-05-14T03:59:44;100778.63;;;16.70;88.47
65054;BME280;51639;47.828;35.038;2023-05-14T04:14:46;100771.72;;;17.22;86.65
65054;BME280;51639;47.828;35.038;2023-05-14T04:29:49;100778.63;;;17.88;83.29
65054;BME280;51639;47.828;35.038;2023-05-14T04:44:51;100781.22;;;18.41;82.77
65054;BME280;51639;47.828;35.038;2023-05-14T04:59:53;100786.00;;;19.14;78.60
65054;BME280;51639;47.828;35.038;2023-05-14T05:14:56;100788.72;;;19.92;76.35
65054;BME280;51639;47.828;35.038;2023-05-14T05:29:59;100800.34;;;20.77;70.07
65054;BME280;51639;47.828;35.038;2023-05-14T05:45:02;100799.78;;;21.41;68.38
65054;BME280;51639;47.828;35.038;2023-05-14T06:00:04;100784.09;;;22.32;69.04
65054;BME280;51639;47.828;35.038;2023-05-14T06:15:16;100774.38;;;23.29;62.97
65054;BME280;51639;47.828;35.038;2023-05-14T06:30:33;100765.22;;;24.23;58.92
65054;BME280;51639;47.828;35.038;2023-05-14T06:46:24;100770.34;;;25.11;50.54
65054;BME280;51639;47.828;35.038;2023-05-14T07:02:04;100770.63;;;25.86;46.10
65054;BME280;51639;47.828;35.038;2023-05-14T07:17:18;100765.69;;;26.42;41.39
65054;BME280;51639;47.828;35.038;2023-05-14T07:32:20;100759.13;;;26.87;37.62
65054;BME280;51639;47.828;35.038;2023-05-14T07:47:41;100754.72;;;27.92;35.57
65054;BME280;51639;47.828;35.038;2023-05-14T08:03:14;100754.09;;;28.48;31.02
65054;BME280;51639;47.828;35.038;2023-05-14T08:18:56;100747.34;;;29.13;32.25
65054;BME280;51639;47.828;35.038;2023-05-14T08:34:15;100749.41;;;28.13;32.96
65054;BME280;51639;47.828;35.038;2023-05-14T08:49:45;100735.97;;;27.03;34.21
65054;BME280;51639;47.828;35.038;2023-05-14T09:05:00;100724.66;;;28.47;32.92
65054;BME280;51639;47.828;35.038;2023-05-14T09:20:19;100716.47;;;29.05;31.34
65054;BME280;51639;47.828;35.038;2023-05-14T09:35:39;100701.66;;;30.22;30.13
65054;BME280;51639;47.828;35.038;2023-05-14T09:50:57;100681.53;;;31.12;28.47
65054;BME280;51639;47.828;35.038;2023-05-14T10:07:02;100662.50;;;31.46;27.88
65054;BME280;51639;47.828;35.038;2023-05-14T10:22:33;100665.66;;;30.26;28.28
65054;BME280;51639;47.828;35.038;2023-05-14T10:38:38;100658.16;;;27.65;30.59
65054;BME280;51639;47.828;35.038;2023-05-14T11:24:57;100631.09;;;28.91;30.79
65054;BME280;51639;47.828;35.038;2023-05-14T11:40:19;100607.94;;;27.65;33.02
65054;BME280;51639;47.828;35.038;2023-05-14T11:55:58;100610.13;;;26.69;32.86
65054;BME280;51639;47.828;35.038;2023-05-14T12:11:08;100604.53;;;26.33;34.81
65054;BME280;51639;47.828;35.038;2023-05-14T12:26:50;100583.06;;;26.94;35.05
65054;BME280;51639;47.828;35.038;2023-05-14T12:41:56;100572.63;;;27.48;34.30
65054;BME280;51639;47.828;35.038;2023-05-14T12:57:24;100581.94;;;27.08;33.48
65054;BME280;51639;47.828;35.038;2023-05-14T13:12:30;100575.00;;;26.90;34.81
65054;BME280;51639;47.828;35.038;2023-05-14T13:27:46;100576.09;;;26.46;36.89
65054;BME280;51639;47.828;35.038;2023-05-14T13:42:51;100586.38;;;25.74;39.77
65054;BME280;51639;47.828;35.038;2023-05-14T13:57:53;100607.09;;;25.73;40.85
65054;BME280;51639;47.828;35.038;2023-05-14T14:12:55;100612.44;;;25.66;39.07
65054;BME280;51639;47.828;35.038;2023-05-14T14:27:57;100618.78;;;25.49;38.10
65054;BME280;51639;47.828;35.038;2023-05-14T14:42:59;100617.03;;;25.46;38.22
65054;BME280;51639;47.828;35.038;2023-05-14T14:58:02;100605.97;;;25.13;36.88
65054;BME280;51639;47.828;35.038;2023-05-14T15:13:05;100590.81;;;24.92;37.20
65054;BME280;51639;47.828;35.038;2023-05-14T15:28:07;100596.88;;;24.79;37.97
65054;BME280;51639;47.828;35.038;2023-05-14T15:43:09;100602.41;;;24.62;38.94
65054;BME280;51639;47.828;35.038;2023-05-14T15:58:10;100589.25;;;24.29;39.66
65054;BME280;51639;47.828;35.038;2023-05-14T16:13:13;100595.66;;;23.87;41.19
65054;BME280;51639;47.828;35.038;2023-05-14T16:28:27;100599.56;;;23.58;42.59
65054;BME280;51639;47.828;35.038;2023-05-14T16:43:29;100596.03;;;23.21;44.09
65054;BME280;51639;47.828;35.038;2023-05-14T16:58:31;100599.50;;;22.78;45.31
65054;BME280;51639;47.828;35.038;2023-05-14T17:13:33;100614.78;;;22.48;45.23
65054;BME280;51639;47.828;35.038;2023-05-14T17:28:35;100614.88;;;22.07;45.87
65054;BME280;51639;47.828;35.038;2023-05-14T17:43:37;100626.75;;;21.73;47.07
65054;BME280;51639;47.828;35.038;2023-05-14T17:58:39;100639.97;;;21.49;47.96
65054;BME280;51639;47.828;35.038;2023-05-14T18:13:41;100638.47;;;21.33;47.86
65054;BME280;51639;47.828;35.038;2023-05-14T18:28:43;100628.13;;;21.13;48.37
65054;BME280;51639;47.828;35.038;2023-05-14T18:43:45;100629.00;;;20.90;49.17
65054;BME280;51639;47.828;35.038;2023-05-14T18:58:47;100622.72;;;20.74;49.29
65054;BME280;51639;47.828;35.038;2023-05-14T19:13:49;100618.44;;;20.59;49.97
65054;BME280;51639;47.828;35.038;2023-05-14T19:28:51;100628.88;;;20.40;50.22
65054;BME280;51639;47.828;35.038;2023-05-14T19:43:58;100620.97;;;20.09;50.19
65054;BME280;51639;47.828;35.038;2023-05-14T19:59:00;100622.28;;;19.99;49.66
65054;BME280;51639;47.828;35.038;2023-05-14T20:14:02;100614.19;;;19.95;49.85
65054;BME280;51639;47.828;35.038;2023-05-14T20:29:04;100608.75;;;19.86;50.20
65054;BME280;51639;47.828;35.038;2023-05-14T20:44:06;100614.44;;;19.59;50.67
65054;BME280;51639;47.828;35.038;2023-05-14T20:59:08;100616.75;;;19.18;53.64
65054;BME280;51639;47.828;35.038;2023-05-14T21:14:11;100601.84;;;19.01;54.14
65054;BME280;51639;47.828;35.038;2023-05-14T21:29:13;100596.72;;;18.76;55.28
65054;BME280;51639;47.828;35.038;2023-05-14T21:44:15;100595.84;;;18.24;58.04
65054;BME280;51639;47.828;35.038;2023-05-14T21:59:17;100585.34;;;18.13;60.42
65054;BME280;51639;47.828;35.038;2023-05-14T22:14:19;100587.00;;;17.92;63.36
65054;BME280;51639;47.828;35.038;2023-05-14T22:29:21;100584.69;;;17.82;66.59
65054;BME280;51639;47.828;35.038;2023-05-14T22:44:23;100572.47;;;17.73;68.37
65054;BME280;51639;47.828;35.038;2023-05-14T22:59:26;100557.09;;;17.94;65.98
65054;BME280;51639;47.828;35.038;2023-05-14T23:14:28;100548.06;;;18.03;65.14
65054;BME280;51639;47.828;35.038;2023-05-14T23:29:30;100541.69;;;17.88;65.91
65054;BME280;51639;47.828;35.038;2023-05-14T23:44:32;100538.47;;;17.71;66.45
65054;BME280;51639;47.828;35.038;2023-05-14T23:59:34;100528.19;;;17.53;67.80
